N64GK KHND-KMSP
Flight info
| Callsign | N64GK |
|---|---|
| Flight time | 2h 30m |
| Altitude | 37000 |
| Route | SCAMR4 HOCEE CRUDD FQF SAE NARLY J114 FSD SSWAN TORGY4 |
| Aircraft | CL60/M-SADE3FGHIJ3J4J7P2RWXY/HB1D1 |
Departure
| Time | 2026-04-25 14:32 |
|---|---|
| Airport | Henderson Executive Airport (KHND) |
Arrival
| Time | 2026-04-25 17:02 |
|---|---|
| Airport | Minneapolis–Saint Paul International Airport / Wold–Chamberlain Field (KMSP) |
| Time | Latitude | Longitude | Altitude | Speed | Heading |
|---|---|---|---|---|---|
| 2026-04-25 13:36 | 35.98049 | -115.13837 | 2404 ft | 0 kts | 14° |
| 2026-04-25 14:25 | 35.98051 | -115.13837 | 2404 ft | 0 kts | 13° |
| 2026-04-25 14:25 | 35.98074 | -115.13829 | 2404 ft | 5 kts | 35° |
| 2026-04-25 14:25 | 35.98078 | -115.13816 | 2404 ft | 5 kts | 78° |
| 2026-04-25 14:26 | 35.98078 | -115.13757 | 2406 ft | 3 kts | 91° |
| 2026-04-25 14:26 | 35.98078 | -115.13750 | 2407 ft | 0 kts | 91° |
| 2026-04-25 14:30 | 35.98078 | -115.13736 | 2407 ft | 4 kts | 88° |
| 2026-04-25 14:30 | 35.98083 | -115.13618 | 2410 ft | 0 kts | 91° |
| 2026-04-25 14:31 | 35.98083 | -115.13602 | 2410 ft | 5 kts | 91° |
| 2026-04-25 14:31 | 35.98079 | -115.13551 | 2412 ft | 5 kts | 117° |
| 2026-04-25 14:31 | 35.98034 | -115.13534 | 2414 ft | 8 kts | 181° |
| 2026-04-25 14:31 | 35.97789 | -115.13537 | 2420 ft | 79 kts | 181° |
| 2026-04-25 14:32 | 35.96953 | -115.13546 | 2473 ft | 154 kts | 180° |
| 2026-04-25 14:32 | 35.95806 | -115.13579 | 3099 ft | 176 kts | 181° |
| 2026-04-25 14:32 | 35.94530 | -115.13647 | 3858 ft | 194 kts | 190° |
| 2026-04-25 14:32 | 35.93259 | -115.14307 | 4343 ft | 201 kts | 212° |
| 2026-04-25 14:33 | 35.92088 | -115.15245 | 4808 ft | 196 kts | 214° |
| 2026-04-25 14:33 | 35.90939 | -115.16129 | 5266 ft | 196 kts | 204° |
| 2026-04-25 14:33 | 35.89605 | -115.16357 | 5694 ft | 200 kts | 178° |
| 2026-04-25 14:33 | 35.88208 | -115.16148 | 5963 ft | 211 kts | 176° |
| 2026-04-25 14:34 | 35.86577 | -115.15909 | 6000 ft | 254 kts | 175° |
| 2026-04-25 14:34 | 35.84843 | -115.15219 | 6003 ft | 276 kts | 152° |
| 2026-04-25 14:34 | 35.83482 | -115.13425 | 6643 ft | 304 kts | 118° |
| 2026-04-25 14:34 | 35.82873 | -115.10986 | 8164 ft | 301 kts | 106° |
| 2026-04-25 14:35 | 35.82412 | -115.08543 | 9584 ft | 297 kts | 107° |
| 2026-04-25 14:35 | 35.81944 | -115.06117 | 10779 ft | 300 kts | 106° |
| 2026-04-25 14:35 | 35.81464 | -115.03610 | 11844 ft | 308 kts | 104° |
| 2026-04-25 14:35 | 35.81263 | -115.00940 | 12875 ft | 319 kts | 93° |
| 2026-04-25 14:36 | 35.81525 | -114.98256 | 13888 ft | 326 kts | 70° |
| 2026-04-25 14:36 | 35.82640 | -114.95801 | 14762 ft | 336 kts | 55° |
| 2026-04-25 14:36 | 35.83981 | -114.93412 | 15635 ft | 345 kts | 54° |
| 2026-04-25 14:36 | 35.85338 | -114.90976 | 16486 ft | 352 kts | 54° |
| 2026-04-25 14:37 | 35.86727 | -114.88460 | 17219 ft | 363 kts | 54° |
| 2026-04-25 14:37 | 35.88166 | -114.85831 | 17732 ft | 379 kts | 54° |
| 2026-04-25 14:37 | 35.89413 | -114.82928 | 18244 ft | 396 kts | 71° |
| 2026-04-25 14:37 | 35.89828 | -114.79532 | 18760 ft | 407 kts | 90° |
| 2026-04-25 14:38 | 35.89834 | -114.76011 | 19230 ft | 417 kts | 91° |
| 2026-04-25 14:38 | 35.89845 | -114.72443 | 19893 ft | 423 kts | 91° |
| 2026-04-25 14:38 | 35.89857 | -114.68786 | 20687 ft | 426 kts | 91° |
| 2026-04-25 14:38 | 35.89868 | -114.65178 | 21435 ft | 429 kts | 91° |
| 2026-04-25 14:39 | 35.89879 | -114.61478 | 22129 ft | 434 kts | 91° |
| 2026-04-25 14:39 | 35.89883 | -114.57737 | 22794 ft | 439 kts | 91° |
| 2026-04-25 14:39 | 35.89860 | -114.53947 | 23456 ft | 445 kts | 92° |
| 2026-04-25 14:39 | 35.89835 | -114.50172 | 24096 ft | 449 kts | 92° |
| 2026-04-25 14:40 | 35.89809 | -114.46298 | 24761 ft | 454 kts | 92° |
| 2026-04-25 14:40 | 35.89781 | -114.42401 | 25351 ft | 459 kts | 92° |
| 2026-04-25 14:40 | 35.89753 | -114.38471 | 25938 ft | 463 kts | 92° |
| 2026-04-25 14:40 | 35.89723 | -114.34521 | 26481 ft | 468 kts | 93° |
| 2026-04-25 14:41 | 35.89691 | -114.30460 | 27023 ft | 472 kts | 93° |
| 2026-04-25 14:41 | 35.89658 | -114.26425 | 27498 ft | 476 kts | 93° |
| 2026-04-25 14:41 | 35.89624 | -114.22385 | 27994 ft | 480 kts | 93° |
| 2026-04-25 14:41 | 35.89588 | -114.18211 | 28447 ft | 484 kts | 93° |
| 2026-04-25 14:42 | 35.89551 | -114.14074 | 28892 ft | 488 kts | 93° |
| 2026-04-25 14:42 | 35.89525 | -114.11289 | 29186 ft | 490 kts | 94° |
| 2026-04-25 14:42 | 35.89471 | -114.05693 | 29730 ft | 495 kts | 94° |
| 2026-04-25 14:42 | 35.89429 | -114.01445 | 30125 ft | 498 kts | 93° |
| 2026-04-25 14:43 | 35.89385 | -113.97169 | 30495 ft | 502 kts | 94° |
| 2026-04-25 14:43 | 35.89340 | -113.92903 | 30867 ft | 505 kts | 93° |
| 2026-04-25 14:43 | 35.89292 | -113.88535 | 31214 ft | 509 kts | 94° |
| 2026-04-25 14:43 | 35.89242 | -113.84174 | 31579 ft | 511 kts | 93° |
| 2026-04-25 14:44 | 35.89191 | -113.79820 | 31879 ft | 515 kts | 93° |
| 2026-04-25 14:44 | 35.89138 | -113.75386 | 32131 ft | 519 kts | 93° |
| 2026-04-25 14:44 | 35.89082 | -113.70926 | 32427 ft | 522 kts | 93° |
| 2026-04-25 14:44 | 35.89026 | -113.66450 | 32744 ft | 524 kts | 94° |
| 2026-04-25 14:45 | 35.88967 | -113.62003 | 33011 ft | 526 kts | 94° |
| 2026-04-25 14:45 | 35.88907 | -113.57459 | 33229 ft | 530 kts | 93° |
| 2026-04-25 14:45 | 35.89049 | -113.52902 | 33440 ft | 535 kts | 85° |
| 2026-04-25 14:45 | 35.89630 | -113.48405 | 33649 ft | 538 kts | 79° |
| 2026-04-25 14:46 | 35.90340 | -113.43851 | 33893 ft | 540 kts | 80° |
| 2026-04-25 14:46 | 35.91039 | -113.39319 | 34181 ft | 541 kts | 80° |
| 2026-04-25 14:46 | 35.91736 | -113.34792 | 34509 ft | 540 kts | 80° |
| 2026-04-25 14:46 | 35.92431 | -113.30265 | 34810 ft | 539 kts | 80° |
| 2026-04-25 14:47 | 35.93124 | -113.25737 | 35093 ft | 539 kts | 80° |
| 2026-04-25 14:47 | 35.93586 | -113.22720 | 35276 ft | 538 kts | 80° |
| 2026-04-25 14:47 | 35.94503 | -113.16702 | 35656 ft | 538 kts | 80° |
| 2026-04-25 14:47 | 35.95188 | -113.12202 | 35912 ft | 537 kts | 80° |
| 2026-04-25 14:48 | 35.95878 | -113.07648 | 36163 ft | 537 kts | 80° |
| 2026-04-25 14:48 | 35.96561 | -113.03135 | 36381 ft | 538 kts | 80° |
| 2026-04-25 14:48 | 35.97243 | -112.98616 | 36608 ft | 538 kts | 80° |
| 2026-04-25 14:48 | 35.97918 | -112.94133 | 36829 ft | 538 kts | 80° |
| 2026-04-25 14:49 | 35.98605 | -112.89552 | 36718 ft | 539 kts | 80° |
| 2026-04-25 14:49 | 35.99277 | -112.85066 | 36925 ft | 539 kts | 80° |
| 2026-04-25 14:49 | 36.00641 | -112.75916 | 37002 ft | 547 kts | 80° |
| 2026-04-25 14:50 | 36.02017 | -112.66639 | 37004 ft | 553 kts | 79° |
| 2026-04-25 14:50 | 36.03391 | -112.57322 | 37012 ft | 554 kts | 79° |
| 2026-04-25 14:51 | 36.04760 | -112.47989 | 37010 ft | 553 kts | 79° |
| 2026-04-25 14:51 | 36.06115 | -112.38698 | 36997 ft | 553 kts | 79° |
| 2026-04-25 14:52 | 36.07473 | -112.29336 | 36960 ft | 552 kts | 81° |
| 2026-04-25 14:52 | 36.08586 | -112.21625 | 36975 ft | 552 kts | 80° |
| 2026-04-25 14:53 | 36.10152 | -112.10706 | 37003 ft | 552 kts | 80° |
| 2026-04-25 14:53 | 36.11475 | -112.01423 | 36985 ft | 552 kts | 80° |
| 2026-04-25 14:54 | 36.12793 | -111.92128 | 37017 ft | 552 kts | 80° |
| 2026-04-25 14:54 | 36.14108 | -111.82794 | 37014 ft | 552 kts | 80° |
| 2026-04-25 14:55 | 36.15417 | -111.73455 | 37022 ft | 552 kts | 80° |
| 2026-04-25 14:55 | 36.16717 | -111.64119 | 37011 ft | 553 kts | 80° |
| 2026-04-25 14:56 | 36.18406 | -111.54883 | 37004 ft | 552 kts | 69° |
| 2026-04-25 14:56 | 36.21493 | -111.46274 | 37000 ft | 549 kts | 59° |
| 2026-04-25 14:57 | 36.24954 | -111.37829 | 37003 ft | 549 kts | 59° |
| 2026-04-25 14:57 | 36.28391 | -111.29412 | 36987 ft | 549 kts | 60° |
| 2026-04-25 14:58 | 36.31802 | -111.21039 | 37008 ft | 548 kts | 60° |
| 2026-04-25 14:58 | 36.35244 | -111.12569 | 36993 ft | 549 kts | 60° |
| 2026-04-25 14:59 | 36.38655 | -111.04153 | 36998 ft | 549 kts | 60° |
| 2026-04-25 14:59 | 36.42064 | -110.95720 | 37009 ft | 549 kts | 60° |
| 2026-04-25 15:00 | 36.45481 | -110.87247 | 36981 ft | 549 kts | 60° |
| 2026-04-25 15:00 | 36.48870 | -110.78822 | 36987 ft | 549 kts | 60° |
| 2026-04-25 15:01 | 36.52286 | -110.70309 | 36990 ft | 550 kts | 60° |
| 2026-04-25 15:01 | 36.55661 | -110.61873 | 37006 ft | 549 kts | 60° |
| 2026-04-25 15:02 | 36.59045 | -110.53393 | 37025 ft | 550 kts | 59° |
| 2026-04-25 15:02 | 36.62429 | -110.44892 | 37026 ft | 550 kts | 60° |
| 2026-04-25 15:03 | 36.65822 | -110.36346 | 37009 ft | 550 kts | 59° |
| 2026-04-25 15:03 | 36.69186 | -110.27849 | 37006 ft | 550 kts | 60° |
| 2026-04-25 15:04 | 36.72560 | -110.19304 | 37001 ft | 551 kts | 60° |
| 2026-04-25 15:04 | 36.75922 | -110.10768 | 37022 ft | 551 kts | 60° |
| 2026-04-25 15:05 | 36.79293 | -110.02184 | 37021 ft | 551 kts | 60° |
| 2026-04-25 15:06 | 36.84311 | -109.89365 | 37022 ft | 551 kts | 60° |
| 2026-04-25 15:06 | 36.87649 | -109.80807 | 37014 ft | 551 kts | 60° |
| 2026-04-25 15:07 | 36.91001 | -109.72191 | 37018 ft | 550 kts | 60° |
| 2026-04-25 15:07 | 36.94328 | -109.63615 | 36995 ft | 550 kts | 60° |
| 2026-04-25 15:08 | 36.97626 | -109.55093 | 36990 ft | 549 kts | 60° |
| 2026-04-25 15:08 | 37.00950 | -109.46479 | 36990 ft | 549 kts | 60° |
| 2026-04-25 15:09 | 37.04239 | -109.37933 | 36998 ft | 549 kts | 60° |
| 2026-04-25 15:09 | 37.09180 | -109.25048 | 36998 ft | 548 kts | 61° |
| 2026-04-25 15:10 | 37.12479 | -109.16415 | 37002 ft | 549 kts | 60° |
| 2026-04-25 15:11 | 37.17384 | -109.03539 | 37012 ft | 548 kts | 61° |
| 2026-04-25 15:11 | 37.20661 | -108.94903 | 37009 ft | 547 kts | 60° |
| 2026-04-25 15:12 | 37.25531 | -108.82028 | 37025 ft | 547 kts | 60° |
| 2026-04-25 15:12 | 37.27685 | -108.76314 | 37011 ft | 547 kts | 60° |
| 2026-04-25 15:13 | 37.33617 | -108.60529 | 36982 ft | 546 kts | 61° |
| 2026-04-25 15:14 | 37.36838 | -108.51923 | 37039 ft | 545 kts | 60° |
| 2026-04-25 15:14 | 37.40052 | -108.43311 | 37047 ft | 545 kts | 60° |
| 2026-04-25 15:15 | 37.43277 | -108.34649 | 37073 ft | 545 kts | 61° |
| 2026-04-25 15:15 | 37.46462 | -108.26070 | 37075 ft | 544 kts | 61° |
| 2026-04-25 15:16 | 37.49662 | -108.17421 | 37078 ft | 544 kts | 61° |
| 2026-04-25 15:16 | 37.54410 | -108.04549 | 37071 ft | 544 kts | 61° |
| 2026-04-25 15:17 | 37.59157 | -107.91624 | 37079 ft | 543 kts | 61° |
| 2026-04-25 15:18 | 37.62330 | -107.82953 | 37080 ft | 543 kts | 61° |
| 2026-04-25 15:18 | 37.67041 | -107.70036 | 37083 ft | 542 kts | 61° |
| 2026-04-25 15:19 | 37.69135 | -107.64275 | 37070 ft | 543 kts | 61° |
| 2026-04-25 15:19 | 37.73323 | -107.52792 | 37076 ft | 540 kts | 58° |
| 2026-04-25 15:20 | 37.77335 | -107.44904 | 37078 ft | 528 kts | 44° |
| 2026-04-25 15:20 | 37.82130 | -107.38039 | 37099 ft | 525 kts | 41° |
| 2026-04-25 15:21 | 37.86991 | -107.31149 | 37112 ft | 524 kts | 41° |
| 2026-04-25 15:21 | 37.91817 | -107.24296 | 37117 ft | 525 kts | 42° |
| 2026-04-25 15:22 | 37.96685 | -107.17371 | 37116 ft | 524 kts | 41° |
| 2026-04-25 15:22 | 38.01506 | -107.10496 | 37118 ft | 524 kts | 42° |
| 2026-04-25 15:23 | 38.06331 | -107.03602 | 37123 ft | 523 kts | 42° |
| 2026-04-25 15:23 | 38.11169 | -106.96677 | 37124 ft | 524 kts | 42° |
| 2026-04-25 15:24 | 38.15980 | -106.89775 | 37142 ft | 524 kts | 42° |
| 2026-04-25 15:24 | 38.20007 | -106.83986 | 37148 ft | 523 kts | 42° |
| 2026-04-25 15:25 | 38.25596 | -106.75936 | 37139 ft | 523 kts | 42° |
| 2026-04-25 15:25 | 38.30371 | -106.69040 | 37166 ft | 521 kts | 43° |
| 2026-04-25 15:26 | 38.35168 | -106.62100 | 37123 ft | 522 kts | 42° |
| 2026-04-25 15:26 | 38.39918 | -106.55212 | 37126 ft | 521 kts | 43° |
| 2026-04-25 15:27 | 38.44691 | -106.48277 | 37091 ft | 519 kts | 43° |
| 2026-04-25 15:28 | 38.51807 | -106.37909 | 37070 ft | 519 kts | 43° |
| 2026-04-25 15:28 | 38.56543 | -106.30989 | 37049 ft | 518 kts | 43° |
| 2026-04-25 15:29 | 38.61237 | -106.24116 | 37038 ft | 517 kts | 43° |
| 2026-04-25 15:29 | 38.65951 | -106.17202 | 37059 ft | 518 kts | 43° |
| 2026-04-25 15:30 | 38.70673 | -106.10259 | 37061 ft | 517 kts | 43° |
| 2026-04-25 15:30 | 38.75387 | -106.03311 | 37062 ft | 517 kts | 43° |
| 2026-04-25 15:31 | 38.80074 | -105.96390 | 37052 ft | 516 kts | 44° |
| 2026-04-25 15:31 | 38.84745 | -105.89475 | 37044 ft | 515 kts | 44° |
| 2026-04-25 15:32 | 38.89417 | -105.82545 | 37050 ft | 513 kts | 44° |
| 2026-04-25 15:32 | 38.94060 | -105.75642 | 37060 ft | 513 kts | 43° |
| 2026-04-25 15:33 | 39.01030 | -105.65253 | 37047 ft | 514 kts | 44° |
| 2026-04-25 15:33 | 39.05708 | -105.58262 | 37027 ft | 514 kts | 44° |
| 2026-04-25 15:34 | 39.10336 | -105.51328 | 37017 ft | 513 kts | 44° |
| 2026-04-25 15:34 | 39.14196 | -105.45534 | 37022 ft | 513 kts | 44° |
| 2026-04-25 15:35 | 39.21904 | -105.33932 | 37048 ft | 513 kts | 44° |
| 2026-04-25 15:36 | 39.28864 | -105.23420 | 37044 ft | 513 kts | 44° |
| 2026-04-25 15:36 | 39.33474 | -105.16438 | 37043 ft | 514 kts | 44° |
| 2026-04-25 15:37 | 39.38104 | -105.09409 | 37025 ft | 514 kts | 45° |
| 2026-04-25 15:37 | 39.42720 | -105.02386 | 36983 ft | 513 kts | 45° |
| 2026-04-25 15:38 | 39.47318 | -104.95373 | 36964 ft | 512 kts | 44° |
| 2026-04-25 15:38 | 39.51894 | -104.88380 | 36914 ft | 513 kts | 45° |
| 2026-04-25 15:39 | 39.56493 | -104.81335 | 36926 ft | 513 kts | 45° |
| 2026-04-25 15:39 | 39.61077 | -104.74298 | 36951 ft | 512 kts | 45° |
| 2026-04-25 15:40 | 39.64133 | -104.69598 | 36961 ft | 512 kts | 45° |
| 2026-04-25 15:40 | 39.70124 | -104.60046 | 36959 ft | 515 kts | 51° |
| 2026-04-25 15:41 | 39.74111 | -104.52424 | 36965 ft | 515 kts | 51° |
| 2026-04-25 15:41 | 39.78124 | -104.44739 | 36984 ft | 515 kts | 51° |
| 2026-04-25 15:42 | 39.82144 | -104.37024 | 36988 ft | 515 kts | 51° |
| 2026-04-25 15:42 | 39.86148 | -104.29324 | 36993 ft | 515 kts | 52° |
| 2026-04-25 15:43 | 39.90128 | -104.21654 | 36981 ft | 515 kts | 52° |
| 2026-04-25 15:43 | 39.94125 | -104.13935 | 36994 ft | 514 kts | 52° |
| 2026-04-25 15:44 | 39.98116 | -104.06211 | 36991 ft | 514 kts | 52° |
| 2026-04-25 15:44 | 40.02093 | -103.98495 | 36993 ft | 514 kts | 52° |
| 2026-04-25 15:45 | 40.06076 | -103.90749 | 37001 ft | 514 kts | 52° |
| 2026-04-25 15:45 | 40.08698 | -103.85640 | 37002 ft | 514 kts | 52° |
| 2026-04-25 15:46 | 40.13988 | -103.75307 | 37001 ft | 514 kts | 52° |
| 2026-04-25 15:46 | 40.17941 | -103.67564 | 36989 ft | 513 kts | 52° |
| 2026-04-25 15:47 | 40.21881 | -103.59827 | 36991 ft | 513 kts | 52° |
| 2026-04-25 15:47 | 40.25833 | -103.52047 | 36985 ft | 513 kts | 52° |
| 2026-04-25 15:48 | 40.29755 | -103.44308 | 36986 ft | 513 kts | 53° |
| 2026-04-25 15:48 | 40.33688 | -103.36527 | 36985 ft | 513 kts | 53° |
| 2026-04-25 15:49 | 40.37616 | -103.28738 | 36994 ft | 513 kts | 53° |
| 2026-04-25 15:49 | 40.41519 | -103.20976 | 36990 ft | 513 kts | 53° |
| 2026-04-25 15:50 | 40.45433 | -103.13177 | 36999 ft | 513 kts | 53° |
| 2026-04-25 15:50 | 40.49346 | -103.05358 | 36990 ft | 513 kts | 53° |
| 2026-04-25 15:51 | 40.52590 | -102.98861 | 36989 ft | 513 kts | 53° |
| 2026-04-25 15:51 | 40.57129 | -102.89749 | 36991 ft | 512 kts | 54° |
| 2026-04-25 15:52 | 40.61018 | -102.81918 | 36987 ft | 512 kts | 54° |
| 2026-04-25 15:52 | 40.64896 | -102.74092 | 36985 ft | 512 kts | 54° |
| 2026-04-25 15:53 | 40.68788 | -102.66217 | 36984 ft | 512 kts | 54° |
| 2026-04-25 15:53 | 40.72640 | -102.58401 | 36989 ft | 513 kts | 54° |
| 2026-04-25 15:54 | 40.76503 | -102.50545 | 36990 ft | 512 kts | 54° |
| 2026-04-25 15:54 | 40.80358 | -102.42684 | 36988 ft | 512 kts | 54° |
| 2026-04-25 15:55 | 40.84228 | -102.34773 | 36988 ft | 512 kts | 55° |
| 2026-04-25 15:55 | 40.88071 | -102.26897 | 36990 ft | 511 kts | 55° |
| 2026-04-25 15:56 | 40.91892 | -102.19047 | 36990 ft | 511 kts | 55° |
| 2026-04-25 15:56 | 40.95719 | -102.11163 | 36990 ft | 512 kts | 55° |
| 2026-04-25 15:57 | 40.99567 | -102.03217 | 36990 ft | 511 kts | 55° |
| 2026-04-25 15:57 | 41.03377 | -101.95326 | 36998 ft | 511 kts | 55° |
| 2026-04-25 15:58 | 41.07188 | -101.87414 | 37005 ft | 511 kts | 55° |
| 2026-04-25 15:58 | 41.10984 | -101.79515 | 37011 ft | 511 kts | 55° |
| 2026-04-25 15:59 | 41.14702 | -101.71466 | 37011 ft | 512 kts | 57° |
| 2026-04-25 15:59 | 41.18353 | -101.63387 | 37001 ft | 512 kts | 57° |
| 2026-04-25 16:00 | 41.20771 | -101.58022 | 36988 ft | 512 kts | 57° |
| 2026-04-25 16:00 | 41.25620 | -101.47244 | 36981 ft | 511 kts | 57° |
| 2026-04-25 16:01 | 41.29243 | -101.39165 | 36991 ft | 511 kts | 57° |
| 2026-04-25 16:01 | 41.32881 | -101.31033 | 36994 ft | 510 kts | 58° |
| 2026-04-25 16:02 | 41.36478 | -101.22974 | 36985 ft | 510 kts | 58° |
| 2026-04-25 16:02 | 41.40086 | -101.14867 | 36988 ft | 510 kts | 58° |
| 2026-04-25 16:03 | 41.43686 | -101.06757 | 36994 ft | 510 kts | 58° |
| 2026-04-25 16:03 | 41.47277 | -100.98647 | 36984 ft | 510 kts | 58° |
| 2026-04-25 16:04 | 41.50859 | -100.90536 | 36997 ft | 509 kts | 58° |
| 2026-04-25 16:04 | 41.54431 | -100.82425 | 37000 ft | 509 kts | 58° |
| 2026-04-25 16:05 | 41.58028 | -100.74236 | 36990 ft | 510 kts | 58° |
| 2026-04-25 16:06 | 41.63363 | -100.62046 | 37003 ft | 510 kts | 58° |
| 2026-04-25 16:06 | 41.66934 | -100.53861 | 37005 ft | 510 kts | 58° |
| 2026-04-25 16:07 | 41.70485 | -100.45699 | 37010 ft | 510 kts | 58° |
| 2026-04-25 16:07 | 41.74037 | -100.37511 | 37007 ft | 510 kts | 58° |
| 2026-04-25 16:08 | 41.77565 | -100.29359 | 37001 ft | 509 kts | 59° |
| 2026-04-25 16:08 | 41.81118 | -100.21124 | 37011 ft | 509 kts | 59° |
| 2026-04-25 16:09 | 41.84639 | -100.12941 | 37013 ft | 509 kts | 59° |
| 2026-04-25 16:09 | 41.88149 | -100.04761 | 37017 ft | 509 kts | 59° |
| 2026-04-25 16:10 | 41.91669 | -99.96536 | 37005 ft | 510 kts | 59° |
| 2026-04-25 16:10 | 41.95200 | -99.88264 | 37010 ft | 510 kts | 59° |
| 2026-04-25 16:11 | 41.98706 | -99.80023 | 37013 ft | 510 kts | 59° |
| 2026-04-25 16:11 | 42.02204 | -99.71782 | 37005 ft | 510 kts | 59° |
| 2026-04-25 16:12 | 42.05689 | -99.63547 | 37019 ft | 510 kts | 59° |
| 2026-04-25 16:12 | 42.09181 | -99.55273 | 37010 ft | 510 kts | 59° |
| 2026-04-25 16:13 | 42.12674 | -99.46974 | 37006 ft | 510 kts | 59° |
| 2026-04-25 16:13 | 42.16150 | -99.38690 | 37010 ft | 510 kts | 59° |
| 2026-04-25 16:14 | 42.19631 | -99.30373 | 37008 ft | 511 kts | 60° |
| 2026-04-25 16:14 | 42.23095 | -99.22076 | 37009 ft | 511 kts | 59° |
| 2026-04-25 16:15 | 42.26751 | -99.13891 | 37009 ft | 512 kts | 58° |
| 2026-04-25 16:15 | 42.30444 | -99.05708 | 37016 ft | 513 kts | 58° |
| 2026-04-25 16:16 | 42.34145 | -98.97480 | 37025 ft | 512 kts | 58° |
| 2026-04-25 16:16 | 42.37814 | -98.89301 | 37030 ft | 512 kts | 58° |
| 2026-04-25 16:17 | 42.41500 | -98.81062 | 37036 ft | 513 kts | 58° |
| 2026-04-25 16:17 | 42.45164 | -98.72846 | 37042 ft | 513 kts | 58° |
| 2026-04-25 16:18 | 42.49305 | -98.65060 | 37040 ft | 512 kts | 47° |
| 2026-04-25 16:18 | 42.53980 | -98.57745 | 37030 ft | 513 kts | 47° |
| 2026-04-25 16:19 | 42.58626 | -98.50444 | 37032 ft | 513 kts | 47° |
| 2026-04-25 16:19 | 42.63273 | -98.43123 | 37026 ft | 514 kts | 47° |
| 2026-04-25 16:20 | 42.70242 | -98.32103 | 37030 ft | 515 kts | 47° |
| 2026-04-25 16:21 | 42.77216 | -98.21034 | 37037 ft | 515 kts | 48° |
| 2026-04-25 16:21 | 42.81836 | -98.13678 | 37038 ft | 516 kts | 48° |
| 2026-04-25 16:22 | 42.86509 | -98.06218 | 37028 ft | 516 kts | 47° |
| 2026-04-25 16:22 | 42.91129 | -97.98823 | 37027 ft | 515 kts | 47° |
| 2026-04-25 16:23 | 42.95772 | -97.91373 | 37040 ft | 516 kts | 47° |
| 2026-04-25 16:23 | 43.00378 | -97.83964 | 37030 ft | 516 kts | 48° |
| 2026-04-25 16:24 | 43.05021 | -97.76475 | 37021 ft | 516 kts | 47° |
| 2026-04-25 16:24 | 43.09629 | -97.69025 | 37027 ft | 518 kts | 47° |
| 2026-04-25 16:25 | 43.14253 | -97.61528 | 37033 ft | 518 kts | 47° |
| 2026-04-25 16:25 | 43.18893 | -97.53986 | 37032 ft | 518 kts | 47° |
| 2026-04-25 16:26 | 43.23508 | -97.46467 | 37021 ft | 519 kts | 47° |
| 2026-04-25 16:26 | 43.28141 | -97.38897 | 37015 ft | 519 kts | 47° |
| 2026-04-25 16:27 | 43.32758 | -97.31335 | 37023 ft | 518 kts | 48° |
| 2026-04-25 16:27 | 43.37372 | -97.23758 | 37030 ft | 519 kts | 48° |
| 2026-04-25 16:28 | 43.41989 | -97.16157 | 37018 ft | 519 kts | 48° |
| 2026-04-25 16:28 | 43.46575 | -97.08585 | 37031 ft | 518 kts | 48° |
| 2026-04-25 16:29 | 43.51157 | -97.01001 | 37035 ft | 518 kts | 48° |
| 2026-04-25 16:29 | 43.55780 | -96.93330 | 37042 ft | 519 kts | 48° |
| 2026-04-25 16:30 | 43.60352 | -96.85723 | 37061 ft | 519 kts | 48° |
| 2026-04-25 16:30 | 43.64937 | -96.78078 | 37053 ft | 519 kts | 48° |
| 2026-04-25 16:31 | 43.69600 | -96.70553 | 37051 ft | 519 kts | 46° |
| 2026-04-25 16:31 | 43.74300 | -96.62977 | 37062 ft | 519 kts | 47° |
| 2026-04-25 16:32 | 43.78993 | -96.55394 | 37046 ft | 519 kts | 46° |
| 2026-04-25 16:32 | 43.83660 | -96.47829 | 37060 ft | 519 kts | 47° |
| 2026-04-25 16:33 | 43.88305 | -96.40283 | 37064 ft | 519 kts | 47° |
| 2026-04-25 16:33 | 43.92986 | -96.32656 | 37073 ft | 518 kts | 47° |
| 2026-04-25 16:34 | 43.97633 | -96.25062 | 37074 ft | 518 kts | 47° |
| 2026-04-25 16:34 | 44.02274 | -96.17458 | 37083 ft | 517 kts | 47° |
| 2026-04-25 16:35 | 44.06894 | -96.09869 | 37067 ft | 517 kts | 47° |
| 2026-04-25 16:35 | 44.11524 | -96.02243 | 37066 ft | 517 kts | 47° |
| 2026-04-25 16:36 | 44.15975 | -95.94460 | 37064 ft | 520 kts | 55° |
| 2026-04-25 16:36 | 44.19537 | -95.85697 | 37057 ft | 521 kts | 60° |
| 2026-04-25 16:37 | 44.23003 | -95.76878 | 37067 ft | 521 kts | 60° |
| 2026-04-25 16:37 | 44.26471 | -95.68034 | 37068 ft | 520 kts | 60° |
| 2026-04-25 16:38 | 44.29908 | -95.59240 | 37072 ft | 520 kts | 60° |
| 2026-04-25 16:38 | 44.33349 | -95.50413 | 37021 ft | 521 kts | 60° |
| 2026-04-25 16:38 | 44.35083 | -95.45954 | 36777 ft | 519 kts | 60° |
| 2026-04-25 16:39 | 44.36785 | -95.41569 | 36547 ft | 515 kts | 60° |
| 2026-04-25 16:39 | 44.38481 | -95.37196 | 36302 ft | 514 kts | 60° |
| 2026-04-25 16:39 | 44.40183 | -95.32800 | 36055 ft | 515 kts | 61° |
| 2026-04-25 16:39 | 44.41896 | -95.28368 | 35646 ft | 517 kts | 61° |
| 2026-04-25 16:40 | 44.43596 | -95.23964 | 35122 ft | 518 kts | 61° |
| 2026-04-25 16:40 | 44.45260 | -95.19521 | 34280 ft | 518 kts | 65° |
| 2026-04-25 16:40 | 44.46582 | -95.14875 | 33518 ft | 519 kts | 72° |
| 2026-04-25 16:40 | 44.47693 | -95.10120 | 32795 ft | 518 kts | 73° |
| 2026-04-25 16:41 | 44.48799 | -95.05368 | 32151 ft | 511 kts | 73° |
| 2026-04-25 16:41 | 44.49527 | -95.02235 | 31734 ft | 507 kts | 73° |
| 2026-04-25 16:41 | 44.52023 | -94.91473 | 30272 ft | 493 kts | 74° |
| 2026-04-25 16:42 | 44.53058 | -94.86992 | 29684 ft | 488 kts | 74° |
| 2026-04-25 16:42 | 44.54093 | -94.82504 | 29079 ft | 484 kts | 74° |
| 2026-04-25 16:42 | 44.55118 | -94.78052 | 28489 ft | 480 kts | 74° |
| 2026-04-25 16:42 | 44.56144 | -94.73587 | 27888 ft | 476 kts | 74° |
| 2026-04-25 16:43 | 44.57150 | -94.69197 | 27300 ft | 473 kts | 74° |
| 2026-04-25 16:43 | 44.58139 | -94.64874 | 26724 ft | 468 kts | 74° |
| 2026-04-25 16:43 | 44.59119 | -94.60584 | 26152 ft | 464 kts | 74° |
| 2026-04-25 16:43 | 44.60092 | -94.56314 | 25587 ft | 461 kts | 73° |
| 2026-04-25 16:44 | 44.61059 | -94.52064 | 25019 ft | 457 kts | 74° |
| 2026-04-25 16:44 | 44.62022 | -94.47823 | 24448 ft | 454 kts | 74° |
| 2026-04-25 16:44 | 44.62972 | -94.43630 | 23901 ft | 451 kts | 74° |
| 2026-04-25 16:44 | 44.63909 | -94.39487 | 23354 ft | 448 kts | 74° |
| 2026-04-25 16:45 | 44.64841 | -94.35361 | 22800 ft | 443 kts | 74° |
| 2026-04-25 16:45 | 44.65770 | -94.31236 | 22246 ft | 439 kts | 75° |
| 2026-04-25 16:45 | 44.66678 | -94.27198 | 21725 ft | 435 kts | 75° |
| 2026-04-25 16:45 | 44.67582 | -94.23174 | 21173 ft | 432 kts | 74° |
| 2026-04-25 16:46 | 44.68481 | -94.19186 | 20669 ft | 428 kts | 74° |
| 2026-04-25 16:46 | 44.69369 | -94.15240 | 20129 ft | 424 kts | 74° |
| 2026-04-25 16:46 | 44.70245 | -94.11340 | 19616 ft | 420 kts | 74° |
| 2026-04-25 16:46 | 44.70534 | -94.10053 | 19442 ft | 419 kts | 74° |
| 2026-04-25 16:47 | 44.71983 | -94.03598 | 18579 ft | 412 kts | 74° |
| 2026-04-25 16:47 | 44.72837 | -93.99784 | 18074 ft | 406 kts | 74° |
| 2026-04-25 16:47 | 44.73669 | -93.96060 | 17438 ft | 402 kts | 75° |
| 2026-04-25 16:47 | 44.74498 | -93.92344 | 16988 ft | 391 kts | 75° |
| 2026-04-25 16:48 | 44.75294 | -93.88778 | 16487 ft | 384 kts | 75° |
| 2026-04-25 16:48 | 44.76080 | -93.85262 | 16006 ft | 372 kts | 75° |
| 2026-04-25 16:48 | 44.76844 | -93.81847 | 15576 ft | 359 kts | 75° |
| 2026-04-25 16:48 | 44.77582 | -93.78541 | 15135 ft | 355 kts | 75° |
| 2026-04-25 16:49 | 44.78309 | -93.75276 | 14697 ft | 351 kts | 75° |
| 2026-04-25 16:49 | 44.79037 | -93.72002 | 14281 ft | 348 kts | 75° |
| 2026-04-25 16:49 | 44.79754 | -93.68768 | 13838 ft | 345 kts | 75° |
| 2026-04-25 16:49 | 44.80466 | -93.65548 | 13410 ft | 343 kts | 75° |
| 2026-04-25 16:50 | 44.81166 | -93.62384 | 12992 ft | 340 kts | 75° |
| 2026-04-25 16:50 | 44.81866 | -93.59213 | 12564 ft | 337 kts | 75° |
| 2026-04-25 16:50 | 44.82557 | -93.56078 | 12152 ft | 333 kts | 75° |
| 2026-04-25 16:50 | 44.83230 | -93.53024 | 11757 ft | 328 kts | 75° |
| 2026-04-25 16:51 | 44.83900 | -93.49976 | 11365 ft | 323 kts | 75° |
| 2026-04-25 16:51 | 44.84555 | -93.46983 | 10962 ft | 321 kts | 76° |
| 2026-04-25 16:51 | 44.84865 | -93.43906 | 10543 ft | 312 kts | 97° |
| 2026-04-25 16:51 | 44.84793 | -93.42902 | 10406 ft | 308 kts | 105° |
| 2026-04-25 16:52 | 44.83423 | -93.38502 | 9741 ft | 291 kts | 128° |
| 2026-04-25 16:52 | 44.82379 | -93.36109 | 9396 ft | 288 kts | 127° |
| 2026-04-25 16:52 | 44.81344 | -93.33717 | 8996 ft | 280 kts | 127° |
| 2026-04-25 16:52 | 44.80358 | -93.31437 | 8704 ft | 267 kts | 127° |
| 2026-04-25 16:53 | 44.78506 | -93.27161 | 8078 ft | 248 kts | 127° |
| 2026-04-25 16:53 | 44.77630 | -93.25143 | 7995 ft | 235 kts | 127° |
| 2026-04-25 16:53 | 44.76765 | -93.23164 | 8001 ft | 240 kts | 127° |
| 2026-04-25 16:54 | 44.75897 | -93.21177 | 7972 ft | 238 kts | 127° |
| 2026-04-25 16:54 | 44.75030 | -93.19173 | 7850 ft | 242 kts | 126° |
| 2026-04-25 16:54 | 44.74175 | -93.17166 | 7700 ft | 237 kts | 125° |
| 2026-04-25 16:54 | 44.73337 | -93.15198 | 7549 ft | 237 kts | 125° |
| 2026-04-25 16:55 | 44.72489 | -93.13211 | 7391 ft | 236 kts | 125° |
| 2026-04-25 16:55 | 44.71651 | -93.11249 | 7237 ft | 235 kts | 125° |
| 2026-04-25 16:55 | 44.70811 | -93.09286 | 7082 ft | 235 kts | 124° |
| 2026-04-25 16:55 | 44.69992 | -93.07295 | 6925 ft | 235 kts | 119° |
| 2026-04-25 16:56 | 44.69513 | -93.05084 | 6705 ft | 240 kts | 99° |
| 2026-04-25 16:56 | 44.69564 | -93.02756 | 6351 ft | 244 kts | 80° |
| 2026-04-25 16:56 | 44.70173 | -93.00526 | 5887 ft | 249 kts | 59° |
| 2026-04-25 16:56 | 44.71302 | -92.98697 | 5612 ft | 244 kts | 38° |
| 2026-04-25 16:57 | 44.72750 | -92.97530 | 5274 ft | 241 kts | 18° |
| 2026-04-25 16:57 | 44.73287 | -92.97301 | 5170 ft | 239 kts | 12° |
| 2026-04-25 16:57 | 44.75952 | -92.97399 | 4667 ft | 230 kts | 341° |
| 2026-04-25 16:57 | 44.77365 | -92.98370 | 4377 ft | 222 kts | 323° |
| 2026-04-25 16:58 | 44.78429 | -92.99831 | 4090 ft | 207 kts | 308° |
| 2026-04-25 16:58 | 44.79190 | -93.01460 | 3821 ft | 195 kts | 303° |
| 2026-04-25 16:58 | 44.79909 | -93.03034 | 3554 ft | 183 kts | 304° |
| 2026-04-25 16:58 | 44.80541 | -93.04446 | 3311 ft | 162 kts | 303° |
| 2026-04-25 16:59 | 44.81134 | -93.05794 | 3105 ft | 161 kts | 304° |
| 2026-04-25 16:59 | 44.81718 | -93.07130 | 2900 ft | 158 kts | 303° |
| 2026-04-25 16:59 | 44.82293 | -93.08449 | 2687 ft | 159 kts | 302° |
| 2026-04-25 16:59 | 44.82866 | -93.09766 | 2482 ft | 159 kts | 302° |
| 2026-04-25 17:00 | 44.83443 | -93.11092 | 2264 ft | 159 kts | 302° |
| 2026-04-25 17:00 | 44.84018 | -93.12416 | 2057 ft | 159 kts | 301° |
| 2026-04-25 17:00 | 44.84582 | -93.13715 | 1864 ft | 143 kts | 301° |
| 2026-04-25 17:00 | 44.85071 | -93.14841 | 1705 ft | 133 kts | 301° |
| 2026-04-25 17:01 | 44.85546 | -93.15936 | 1485 ft | 128 kts | 302° |
| 2026-04-25 17:01 | 44.86012 | -93.17009 | 1333 ft | 129 kts | 302° |
| 2026-04-25 17:01 | 44.86474 | -93.18079 | 1163 ft | 128 kts | 302° |
| 2026-04-25 17:01 | 44.86941 | -93.19166 | 1007 ft | 129 kts | 302° |
| 2026-04-25 17:02 | 44.87409 | -93.20252 | 860 ft | 131 kts | 302° |
| 2026-04-25 17:02 | 44.87848 | -93.21260 | 821 ft | 101 kts | 302° |
| 2026-04-25 17:02 | 44.88089 | -93.21818 | 824 ft | 31 kts | 300° |
| 2026-04-25 17:02 | 44.88171 | -93.22021 | 828 ft | 14 kts | 284° |
| 2026-04-25 17:03 | 44.88130 | -93.22131 | 828 ft | 11 kts | 212° |
| 2026-04-25 17:03 | 44.88077 | -93.22086 | 827 ft | 11 kts | 123° |
| 2026-04-25 17:03 | 44.88028 | -93.21974 | 827 ft | 15 kts | 122° |
| 2026-04-25 17:03 | 44.87960 | -93.21819 | 824 ft | 21 kts | 121° |
| 2026-04-25 17:04 | 44.87891 | -93.21658 | 824 ft | 16 kts | 122° |
| 2026-04-25 17:04 | 44.87844 | -93.21588 | 824 ft | 9 kts | 165° |
| 2026-04-25 17:04 | 44.87817 | -93.21629 | 824 ft | 4 kts | 237° |
| 2026-04-25 17:04 | 44.87785 | -93.21657 | 824 ft | 6 kts | 187° |
| 2026-04-25 17:05 | 44.87765 | -93.21677 | 824 ft | 4 kts | 259° |
| 2026-04-25 17:05 | 44.87765 | -93.21723 | 824 ft | 0 kts | 269° |